Latest Weather Observations for Cape Leeuwin

IDW60801

Issued at 6:02 pm WST Tuesday 30 June 2015 (issued every 30 minutes, with the page automatically refreshed every 10 minutes)

About weather observations | Map of weather stations | Latest weather observations for WA | Other Formats
Station Details ID: 009518 Name: CAPE LEEUWIN Lat: -34.37 Lon: 115.14 Height: 13.0 m
Data from the previous 72 hours. | See also: Recent months at Cape Leeuwin
Date/Time
WST
Temp
°C
App
Temp
°C
Dew
Point
Rel
Hum
%
Delta-T
°C
Wind Press
QNH
hPa
Press
MSL
hPa
Rain
since 9 am
mm
Dir
 
Spd
km/h
Gust
km/h
Spd
kts
Gust
kts
30/06:00pm 16.2 15.0 12.8 80 1.9 NE 11 15 6 8 1021.4 1021.4 0.0
30/05:30pm 16.6 15.8 12.8 78 2.1 NE 9 13 5 7 1021.3 1021.3 0.0
30/05:00pm 17.0 17.6 13.2 78 2.1 ENE 2 6 1 3 1021.3 1021.3 0.0
30/04:30pm 17.2 16.8 12.9 76 2.4 NE 7 11 4 6 1021.4 1021.4 0.0
30/04:00pm 17.5 16.7 13.0 75 2.5 NNE 9 13 5 7 1021.6 1021.6 0.0
30/03:30pm 18.2 18.7 11.6 65 3.6 CALM 0 0 0 0 1021.5 1021.5 0.0
30/03:00pm 18.2 17.8 11.2 63 3.8 W 4 7 2 4 1021.2 1021.2 0.0
30/02:30pm 18.5 17.7 10.9 61 4.1 NW 6 7 3 4 1020.9 1020.9 0.0
30/02:00pm 19.0 19.2 10.6 58 4.5 CALM 0 4 0 2 1020.9 1020.9 0.0
30/01:30pm 18.5 17.6 9.1 54 4.9 WNW 4 9 2 5 1020.9 1020.9 0.0
30/01:00pm 18.4 17.3 10.1 58 4.4 W 6 7 3 4 1020.9 1020.9 0.0
30/12:30pm 18.6 19.0 11.4 63 3.9 CALM 0 0 0 0 1021.2 1021.2 0.0
30/12:00pm 18.3 18.3 11.3 63 3.8 NW 2 7 1 4 1021.8 1021.8 0.0
30/11:30am 17.9 16.7 10.4 61 4.0 WNW 7 9 4 5 1022.3 1022.3 0.0
30/11:00am 17.8 17.9 10.0 60 4.1 CALM 0 0 0 0 1022.8 1022.8 0.0
30/10:30am 17.1 16.8 10.1 63 3.7 N 2 7 1 4 1022.8 1022.8 0.0
30/10:00am 15.6 13.0 9.4 66 3.2 N 13 19 7 10 1023.0 1023.0 0.0
30/09:30am 15.6 13.8 9.6 67 3.1 NNE 9 13 5 7 1022.8 1022.8 0.0
30/09:00am 15.3 13.9 9.0 66 3.2 NNE 6 9 3 5 1022.6 1022.6 0.0
30/08:30am 14.9 14.5 9.7 71 2.7 N 2 7 1 4 1022.4 1022.4 0.0
30/08:00am 13.8 10.8 7.7 66 3.0 N 13 17 7 9 1022.5 1022.5 0.0
30/07:30am 13.7 12.1 8.9 73 2.4 ENE 7 9 4 5 1022.3 1022.3 0.0
30/07:00am 14.3 13.2 8.5 68 2.9 NNW 4 7 2 4 1022.1 1022.1 0.0
30/06:30am 13.8 11.3 6.7 62 3.4 N 9 11 5 6 1021.9 1021.9 0.0
30/06:00am 14.1 11.6 6.6 60 3.6 N 9 11 5 6 1021.9 1021.9 0.0
30/05:30am 13.4 10.9 6.7 64 3.2 NNE 9 11 5 6 1022.2 1022.2 0.0
30/05:00am 13.5 11.5 7.3 66 3.0 NNE 7 11 4 6 1022.0 1022.0 0.0
30/04:30am 13.4 11.4 7.2 66 3.0 ENE 7 9 4 5 1021.9 1021.9 0.0
30/04:00am 14.2 13.5 8.6 69 2.8 SE 2 6 1 3 1021.7 1021.7 0.0
30/03:30am 14.8 13.7 8.4 65 3.2 E 4 9 2 5 1022.0 1022.0 0.0
30/03:00am 14.9 13.0 7.6 61 3.6 SE 7 9 4 5 1022.4 1022.4 0.0
30/02:30am 14.3 10.1 5.9 57 4.0 NNE 17 22 9 12 1022.2 1022.2 0.0
30/02:00am 14.0 10.1 5.2 55 4.1 NNE 15 20 8 11 1022.5 1022.5 0.0
30/01:30am 14.5 9.6 5.1 53 4.4 NNE 20 28 11 15 1022.3 1022.3 0.0
30/01:00am 14.4 10.2 5.5 55 4.2 NNE 17 22 9 12 1022.6 1022.6 0.0
30/12:30am 14.2 9.7 6.0 58 3.9 NE 19 24 10 13 1022.9 1022.9 0.0
30/12:00am 13.6 9.6 6.7 63 3.3 NE 17 20 9 11 1023.0 1023.0 0.0
 
Date/Time
WST
Temp
°C
App
Temp
°C
Dew
Point
Rel
Hum
%
Delta-T
°C
Wind Press
QNH
hPa
Press
MSL
hPa
Rain
since 9 am
mm
Dir
 
Spd
km/h
Gust
km/h
Spd
kts
Gust
kts
29/11:30pm 13.6 9.0 6.5 62 3.4 NE 20 24 11 13 1022.8 1022.8 0.0
29/11:00pm 13.7 9.4 7.1 64 3.2 NE 19 22 10 12 1023.2 1023.2 0.0
29/10:30pm 13.7 9.2 7.1 64 3.2 NE 20 26 11 14 1023.2 1023.2 0.0
29/10:00pm 14.1 10.0 8.0 66 3.0 NE 19 20 10 11 1023.3 1023.3 0.0
29/09:30pm 14.6 11.2 9.1 69 2.8 ENE 17 20 9 11 1023.6 1023.6 0.0
29/09:00pm 14.8 10.7 8.6 66 3.1 ENE 20 24 11 13 1023.5 1023.5 0.0
29/08:30pm 14.5 9.8 5.3 54 4.3 NE 19 20 10 11 1023.5 1023.5 0.0
29/08:00pm 14.5 11.7 8.5 67 3.0 NE 13 17 7 9 1023.6 1023.6 0.0
29/07:30pm 14.5 11.7 8.7 68 2.9 NE 13 15 7 8 1023.5 1023.5 0.0
29/07:00pm 14.4 11.4 7.9 65 3.2 ENE 13 15 7 8 1023.4 1023.4 0.0
29/06:30pm 14.9 11.7 6.9 58 3.9 NE 13 15 7 8 1023.3 1023.3 0.0
29/06:00pm 14.9 12.1 6.9 58 3.9 NE 11 11 6 6 1023.3 1023.3 0.0
29/05:30pm 14.9 12.5 6.9 58 3.9 NE 9 11 5 6 1023.4 1023.4 0.0
29/05:00pm 15.4 13.7 7.5 59 3.9 ENE 6 7 3 4 1023.5 1023.5 0.0
29/04:30pm 16.8 15.3 8.3 57 4.3 ENE 6 7 3 4 1023.6 1023.6 0.0
29/04:00pm 18.1 15.6 4.9 41 6.3 ENE 7 11 4 6 1023.5 1023.5 0.0
29/03:30pm 18.5 15.7 5.0 41 6.5 E 9 11 5 6 1023.6 1023.6 0.0
29/03:00pm 18.5 15.9 6.1 44 6.1 ENE 9 11 5 6 1023.4 1023.4 0.0
29/02:30pm 18.3 15.9 8.8 54 4.9 E 11 11 6 6 1023.4 1023.4 0.0
29/02:00pm 18.8 16.6 7.8 48 5.6 E 9 11 5 6 1023.5 1023.5 0.0
29/01:30pm 18.9 16.4 8.2 50 5.5 E 11 13 6 7 1023.7 1023.7 0.0
29/01:00pm 19.0 16.5 6.5 44 6.2 E 9 11 5 6 1024.0 1024.0 0.0
29/12:30pm 19.2 17.4 7.8 47 5.8 E 7 11 4 6 1024.4 1024.4 0.0
29/12:00pm 20.2 18.8 5.3 37 7.3 NNE 2 7 1 4 1024.9 1024.9 0.0
29/11:30am 19.6 17.8 5.2 38 7.0 NW 4 6 2 3 1025.1 1025.1 0.0
29/11:00am 18.6 16.1 6.5 45 6.0 NNE 9 11 5 6 1025.4 1025.4 0.0
29/10:30am 16.9 13.1 5.9 48 5.3 NNE 15 17 8 9 1025.7 1025.7 0.0
29/10:00am 16.1 12.0 6.2 52 4.8 NNE 17 22 9 12 1025.8 1025.8 0.0
29/09:30am 14.9 10.1 5.6 53 4.4 NNE 20 24 11 13 1025.7 1025.7 0.0
29/09:00am 13.9 8.2 4.8 54 4.2 NNE 24 30 13 16 1025.5 1025.5 0.0
29/08:30am 12.8 6.6 4.4 56 3.8 NNE 26 32 14 17 1025.5 1025.5 0.0
29/08:00am 12.3 5.7 4.0 57 3.7 NNE 28 35 15 19 1025.3 1025.3 0.0
29/07:30am 11.9 5.3 4.3 59 3.4 NNE 28 35 15 19 1025.1 1025.1 0.0
29/07:00am 12.0 5.1 4.5 60 3.4 NNE 30 35 16 19 1025.0 1025.0 0.0
29/06:30am 12.0 5.1 4.7 61 3.3 NNE 30 35 16 19 1025.1 1025.1 0.0
29/06:00am 12.0 5.6 5.2 63 3.1 NNE 28 35 15 19 1025.0 1025.0 0.0
29/05:30am 12.0 5.6 5.2 63 3.1 NNE 28 35 15 19 1025.1 1025.1 0.0
29/05:00am 12.2 5.4 5.2 62 3.2 NNE 30 39 16 21 1025.2 1025.2 0.0
29/04:30am 12.0 4.8 5.0 62 3.2 NNE 32 39 17 21 1025.2 1025.2 0.0
29/04:00am 12.0 5.2 5.2 63 3.1 NNE 30 37 16 20 1025.4 1025.4 0.0
29/03:30am 11.9 5.2 5.6 65 2.9 NNE 30 37 16 20 1025.6 1025.6 0.0
29/03:00am 12.1 5.8 5.6 64 3.0 NNE 28 37 15 20 1025.8 1025.8 0.0
29/02:30am 12.1 5.8 5.9 66 2.9 NNE 28 35 15 19 1026.2 1026.2 0.0
29/02:00am 12.2 5.6 6.0 66 2.9 NNE 30 37 16 20 1026.2 1026.2 0.0
29/01:30am 12.3 5.7 6.1 66 2.9 NNE 30 37 16 20 1026.3 1026.3 0.0
29/01:00am 12.3 6.2 6.4 67 2.8 NNE 28 35 15 19 1026.5 1026.5 0.0
29/12:30am 12.7 6.2 6.3 65 3.0 NNE 30 37 16 20 1026.6 1026.6 0.0
29/12:00am 12.5 6.0 6.6 67 2.8 NNE 30 35 16 19 1026.9 1026.9 0.0
 
Date/Time
WST
Temp
°C
App
Temp
°C
Dew
Point
Rel
Hum
%
Delta-T
°C
Wind Press
QNH
hPa
Press
MSL
hPa
Rain
since 9 am
mm
Dir
 
Spd
km/h
Gust
km/h
Spd
kts
Gust
kts
28/11:30pm 13.0 6.2 6.7 65 3.0 NNE 32 39 17 21 1026.9 1026.9 0.0
28/11:00pm 12.7 7.2 7.5 70 2.5 NE 26 32 14 17 1027.0 1027.0 0.0
28/10:30pm 13.2 7.7 7.4 68 2.8 NE 26 32 14 17 1027.3 1027.3 0.0
28/10:00pm 12.8 7.8 8.1 73 2.3 NE 24 30 13 16 1027.2 1027.2 0.0
28/09:30pm 12.7 7.0 8.2 74 2.2 NE 28 33 15 18 1027.2 1027.2 0.0
28/09:00pm 12.6 7.7 8.6 76 2.0 NE 24 30 13 16 1027.4 1027.4 0.0
28/08:30pm 12.9 8.9 8.9 76 2.0 NE 20 24 11 13 1027.8 1027.8 0.0
28/08:00pm 13.7 11.4 9.1 74 2.3 NE 11 19 6 10 1027.8 1027.8 0.0
28/07:30pm 14.5 13.3 9.4 71 2.6 N 6 7 3 4 1027.9 1027.9 0.0
28/07:00pm 14.4 12.9 9.3 71 2.6 N 7 9 4 5 1027.9 1027.9 0.0
28/06:30pm 14.7 13.8 10.5 76 2.2 NNW 6 7 3 4 1027.9 1027.9 0.0
28/06:00pm 16.0 14.9 10.5 70 2.9 NW 7 9 4 5 1027.6 1027.6 0.0
28/05:30pm 15.7 13.8 9.0 64 3.4 NNE 9 11 5 6 1027.4 1027.4 0.0
28/05:00pm 16.5 15.5 10.2 66 3.3 NE 6 6 3 3 1027.4 1027.4 0.0
28/04:30pm 17.2 15.8 8.8 57 4.3 ENE 6 7 3 4 1027.5 1027.5 0.0
28/04:00pm 17.5 15.6 9.0 57 4.4 E 9 11 5 6 1027.3 1027.3 0.0
28/03:30pm 17.6 15.4 9.5 59 4.2 ESE 11 13 6 7 1027.3 1027.3 0.0
28/03:00pm 18.0 15.9 9.8 58 4.3 E 11 13 6 7 1027.4 1027.4 0.0
28/02:30pm 18.3 15.5 10.0 58 4.4 ENE 15 20 8 11 1027.4 1027.4 0.0
28/02:00pm 17.9 14.4 8.8 55 4.7 NE 17 20 9 11 1027.6 1027.6 0.0
28/01:30pm 18.0 14.3 9.4 57 4.5 NE 19 22 10 12 1027.7 1027.7 0.0
28/01:00pm 17.7 14.4 9.4 58 4.3 NE 17 22 9 12 1028.0 1028.0 0.0
28/12:30pm 17.0 12.9 8.8 58 4.2 NE 20 26 11 14 1028.5 1028.5 0.0
28/12:00pm 16.3 11.4 8.6 60 3.9 NNE 24 30 13 16 1029.0 1029.0 0.0
28/11:30am 15.5 10.2 8.3 62 3.6 NNE 26 33 14 18 1029.5 1029.5 0.0
28/11:00am 14.5 8.7 8.0 65 3.2 NNE 28 37 15 20 1030.0 1030.0 0.0
28/10:30am 13.5 7.0 8.2 70 2.6 NE 32 43 17 23 1030.2 1030.2 0.0
28/10:00am 13.0 6.4 7.6 70 2.6 NNE 32 43 17 23 1030.6 1030.6 0.0
28/09:30am 12.7 6.9 7.8 72 2.4 NE 28 41 15 22 1030.6 1030.6 0.0
28/09:00am 12.0 5.7 7.6 74 2.1 NE 30 41 16 22 1030.5 1030.5 0.0
28/08:30am 11.4 4.7 7.4 76 1.9 NE 32 41 17 22 1030.5 1030.5 0.0
28/08:00am 10.8 4.9 7.4 79 1.6 NE 28 41 15 22 1030.2 1030.2 0.0
28/07:30am 10.3 4.3 7.1 80 1.5 NE 28 39 15 21 1030.1 1030.1 0.0
28/07:00am 10.2 3.8 6.8 79 1.6 NE 30 37 16 20 1030.0 1030.0 0.0
28/06:30am 10.3 4.5 6.4 77 1.8 NE 26 32 14 17 1030.1 1030.1 0.0
28/06:00am 10.3 4.0 5.9 74 2.0 NE 28 37 15 20 1030.1 1030.1 0.0
28/05:30am 10.0 4.5 5.8 75 1.9 NE 24 32 13 17 1030.0 1030.0 0.0
28/05:00am 10.7 5.3 6.2 74 2.1 NE 24 28 13 15 1030.2 1030.2 0.0
28/04:30am 10.9 5.9 6.6 75 2.0 NE 22 26 12 14 1030.3 1030.3 0.0
28/04:00am 11.0 6.4 6.7 75 2.0 NE 20 24 11 13 1030.6 1030.6 0.0
28/03:30am 10.9 6.6 6.9 76 1.9 ENE 19 20 10 11 1030.8 1030.8 0.0
28/03:00am 10.4 6.4 6.5 77 1.8 NE 17 20 9 11 1031.1 1031.1 0.0
28/02:30am 10.6 6.5 6.3 75 2.0 NE 17 20 9 11 1031.1 1031.1 0.0
28/02:00am 10.2 6.6 6.8 79 1.6 NE 15 17 8 9 1031.3 1031.3 0.0
28/01:30am 11.5 7.6 7.1 74 2.1 NE 17 20 9 11 1031.3 1031.3 0.0
28/01:00am 12.6 8.9 7.9 73 2.3 ENE 17 22 9 12 1031.4 1031.4 0.0
28/12:30am 12.9 9.1 7.5 69 2.6 NE 17 26 9 14 1031.6 1031.6 0.0
28/12:00am 15.2 9.1 8.4 64 3.4 E 30 35 16 19 1031.5 1031.5 0.0
 
Date/Time
WST
Temp
°C
App
Temp
°C
Dew
Point
Rel
Hum
%
Delta-T
°C
Wind Press
QNH
hPa
Press
MSL
hPa
Rain
since 9 am
mm
Dir
 
Spd
km/h
Gust
km/h
Spd
kts
Gust
kts
27/11:30pm 15.4 9.6 8.0 61 3.7 E 28 32 15 17 1031.6 1031.6 0.0
27/11:00pm 15.5 9.5 7.1 57 4.1 E 28 33 15 18 1031.7 1031.7 0.0
27/10:30pm 15.3 9.7 7.3 59 4.0 E 26 32 14 17 1031.7 1031.7 0.0
27/10:00pm 15.5 9.4 6.6 55 4.3 E 28 32 15 17 1031.8 1031.8 0.0
27/09:30pm 15.4 10.0 6.2 54 4.4 E 24 30 13 16 1031.9 1031.9 0.0
27/09:00pm 15.4 10.5 7.0 57 4.1 E 22 28 12 15 1032.0 1032.0 0.0
27/08:30pm 14.7 10.6 8.0 64 3.3 ENE 19 22 10 12 1031.9 1031.9 0.0
27/08:00pm 15.4 10.3 7.5 59 3.9 ENE 24 30 13 16 1031.8 1031.8 0.0
27/07:30pm 14.9 10.8 8.5 65 3.2 ENE 20 28 11 15 1031.6 1031.6 0.0
27/07:00pm 15.4 10.8 8.2 62 3.6 ENE 22 26 12 14 1031.4 1031.4 0.0
27/06:30pm 16.2 10.6 7.3 55 4.4 E 26 35 14 19 1030.9 1030.9 0.0

Other Formats:

Comma delimited format used in spreadsheet applications
http://www.bom.gov.au/fwo/IDW60801/IDW60801.94601.axf

JavaScript Object Notation format (JSON) in row-major order
http://www.bom.gov.au/fwo/IDW60801/IDW60801.94601.json